sensor_id;sensor_type;location;lat;lon;timestamp;temperature;humidity
14079;DHT22;7115;50.150;8.568;2022-12-07T00:01:23;5.00;99.90
14079;DHT22;7115;50.150;8.568;2022-12-07T00:03:52;5.00;99.90
14079;DHT22;7115;50.150;8.568;2022-12-07T00:06:20;5.00;99.90
14079;DHT22;7115;50.150;8.568;2022-12-07T00:08:47;5.10;99.90
14079;DHT22;7115;50.150;8.568;2022-12-07T00:11:16;5.10;99.90
14079;DHT22;7115;50.150;8.568;2022-12-07T00:13:44;5.10;99.90
14079;DHT22;7115;50.150;8.568;2022-12-07T00:16:14;5.10;99.90
14079;DHT22;7115;50.150;8.568;2022-12-07T00:18:43;5.10;99.90
14079;DHT22;7115;50.150;8.568;2022-12-07T00:21:12;5.00;99.90
14079;DHT22;7115;50.150;8.568;2022-12-07T00:23:40;5.00;99.90
14079;DHT22;7115;50.150;8.568;2022-12-07T00:26:09;5.00;99.90
14079;DHT22;7115;50.150;8.568;2022-12-07T00:28:36;5.00;99.90
14079;DHT22;7115;50.150;8.568;2022-12-07T00:31:05;5.00;99.90
14079;DHT22;7115;50.150;8.568;2022-12-07T00:33:32;5.00;99.90
14079;DHT22;7115;50.150;8.568;2022-12-07T00:36:01;5.00;99.90
14079;DHT22;7115;50.150;8.568;2022-12-07T00:38:30;5.00;99.90
14079;DHT22;7115;50.150;8.568;2022-12-07T00:40:59;5.00;99.90
14079;DHT22;7115;50.150;8.568;2022-12-07T00:43:27;5.00;99.90
14079;DHT22;7115;50.150;8.568;2022-12-07T00:45:54;5.00;99.90
14079;DHT22;7115;50.150;8.568;2022-12-07T00:48:21;5.00;99.90
14079;DHT22;7115;50.150;8.568;2022-12-07T00:50:49;4.90;99.90
14079;DHT22;7115;50.150;8.568;2022-12-07T00:53:17;4.90;99.90
14079;DHT22;7115;50.150;8.568;2022-12-07T00:55:45;4.90;99.90
14079;DHT22;7115;50.150;8.568;2022-12-07T00:58:12;4.90;99.90
14079;DHT22;7115;50.150;8.568;2022-12-07T01:00:40;4.90;99.90
14079;DHT22;7115;50.150;8.568;2022-12-07T01:03:10;4.90;99.90
14079;DHT22;7115;50.150;8.568;2022-12-07T01:05:37;4.90;99.90
14079;DHT22;7115;50.150;8.568;2022-12-07T01:08:05;4.80;99.90
14079;DHT22;7115;50.150;8.568;2022-12-07T01:10:33;4.80;99.90
14079;DHT22;7115;50.150;8.568;2022-12-07T01:13:00;4.80;99.90
14079;DHT22;7115;50.150;8.568;2022-12-07T01:15:27;4.80;99.90
14079;DHT22;7115;50.150;8.568;2022-12-07T01:17:54;4.90;99.90
14079;DHT22;7115;50.150;8.568;2022-12-07T01:20:21;4.80;99.90
14079;DHT22;7115;50.150;8.568;2022-12-07T01:22:48;4.80;99.90
14079;DHT22;7115;50.150;8.568;2022-12-07T01:25:15;4.70;99.90
14079;DHT22;7115;50.150;8.568;2022-12-07T01:27:43;4.70;99.90
14079;DHT22;7115;50.150;8.568;2022-12-07T01:30:11;4.60;99.90
14079;DHT22;7115;50.150;8.568;2022-12-07T01:32:38;4.60;99.90
14079;DHT22;7115;50.150;8.568;2022-12-07T01:35:06;4.60;99.90
14079;DHT22;7115;50.150;8.568;2022-12-07T01:37:35;4.60;99.90
14079;DHT22;7115;50.150;8.568;2022-12-07T01:40:03;4.50;99.90
14079;DHT22;7115;50.150;8.568;2022-12-07T01:42:30;4.50;99.90
14079;DHT22;7115;50.150;8.568;2022-12-07T01:48:05;4.50;99.90
14079;DHT22;7115;50.150;8.568;2022-12-07T01:50:35;4.50;99.90
14079;DHT22;7115;50.150;8.568;2022-12-07T01:53:05;4.50;99.90
14079;DHT22;7115;50.150;8.568;2022-12-07T01:55:34;4.50;99.90
14079;DHT22;7115;50.150;8.568;2022-12-07T01:58:04;4.40;99.90
14079;DHT22;7115;50.150;8.568;2022-12-07T02:00:31;4.40;99.90
14079;DHT22;7115;50.150;8.568;2022-12-07T02:03:03;4.40;99.90
14079;DHT22;7115;50.150;8.568;2022-12-07T02:05:34;4.40;99.90
14079;DHT22;7115;50.150;8.568;2022-12-07T02:08:02;4.40;99.90
14079;DHT22;7115;50.150;8.568;2022-12-07T02:10:31;4.40;99.90
14079;DHT22;7115;50.150;8.568;2022-12-07T02:13:00;4.30;99.90
14079;DHT22;7115;50.150;8.568;2022-12-07T02:15:36;4.30;99.90
14079;DHT22;7115;50.150;8.568;2022-12-07T02:18:09;4.40;99.90
14079;DHT22;7115;50.150;8.568;2022-12-07T02:20:44;4.40;99.90
14079;DHT22;7115;50.150;8.568;2022-12-07T02:23:48;4.40;99.90
14079;DHT22;7115;50.150;8.568;2022-12-07T02:26:44;4.40;99.90
14079;DHT22;7115;50.150;8.568;2022-12-07T02:29:22;4.30;99.90
14079;DHT22;7115;50.150;8.568;2022-12-07T02:31:56;4.40;99.90
14079;DHT22;7115;50.150;8.568;2022-12-07T02:34:30;4.30;99.90
14079;DHT22;7115;50.150;8.568;2022-12-07T02:37:03;4.40;99.90
14079;DHT22;7115;50.150;8.568;2022-12-07T02:39:37;4.50;99.90
14079;DHT22;7115;50.150;8.568;2022-12-07T02:42:12;4.50;99.90
14079;DHT22;7115;50.150;8.568;2022-12-07T02:44:42;4.60;99.90
14079;DHT22;7115;50.150;8.568;2022-12-07T02:47:13;4.60;99.90
14079;DHT22;7115;50.150;8.568;2022-12-07T02:49:42;4.60;99.90
14079;DHT22;7115;50.150;8.568;2022-12-07T02:52:09;4.60;99.90
14079;DHT22;7115;50.150;8.568;2022-12-07T02:54:36;4.70;99.90
14079;DHT22;7115;50.150;8.568;2022-12-07T02:57:13;4.70;99.90
14079;DHT22;7115;50.150;8.568;2022-12-07T02:59:50;4.70;99.90
14079;DHT22;7115;50.150;8.568;2022-12-07T03:02:31;4.70;99.90
14079;DHT22;7115;50.150;8.568;2022-12-07T03:05:09;4.70;99.90
14079;DHT22;7115;50.150;8.568;2022-12-07T03:07:45;4.70;99.90
14079;DHT22;7115;50.150;8.568;2022-12-07T03:10:21;4.70;99.90
14079;DHT22;7115;50.150;8.568;2022-12-07T03:12:57;4.70;99.90
14079;DHT22;7115;50.150;8.568;2022-12-07T03:15:32;4.70;99.90
14079;DHT22;7115;50.150;8.568;2022-12-07T03:18:01;4.70;99.90
14079;DHT22;7115;50.150;8.568;2022-12-07T03:20:31;4.60;99.90
14079;DHT22;7115;50.150;8.568;2022-12-07T03:22:59;4.60;99.90
14079;DHT22;7115;50.150;8.568;2022-12-07T03:25:27;4.60;99.90
14079;DHT22;7115;50.150;8.568;2022-12-07T03:27:57;4.60;99.90
14079;DHT22;7115;50.150;8.568;2022-12-07T03:30:30;4.60;99.90
14079;DHT22;7115;50.150;8.568;2022-12-07T03:33:02;4.60;99.90
14079;DHT22;7115;50.150;8.568;2022-12-07T03:35:34;4.60;99.90
14079;DHT22;7115;50.150;8.568;2022-12-07T03:38:08;4.60;99.90
14079;DHT22;7115;50.150;8.568;2022-12-07T03:40:44;4.60;99.90
14079;DHT22;7115;50.150;8.568;2022-12-07T03:43:13;4.60;99.90
14079;DHT22;7115;50.150;8.568;2022-12-07T03:45:43;4.60;99.90
14079;DHT22;7115;50.150;8.568;2022-12-07T03:48:18;4.60;99.90
14079;DHT22;7115;50.150;8.568;2022-12-07T03:50:52;4.70;99.90
14079;DHT22;7115;50.150;8.568;2022-12-07T03:53:23;4.60;99.90
14079;DHT22;7115;50.150;8.568;2022-12-07T03:55:52;4.60;99.90
14079;DHT22;7115;50.150;8.568;2022-12-07T03:58:21;4.70;99.90
14079;DHT22;7115;50.150;8.568;2022-12-07T04:00:50;4.70;99.90
14079;DHT22;7115;50.150;8.568;2022-12-07T04:03:18;4.70;99.90
14079;DHT22;7115;50.150;8.568;2022-12-07T04:05:45;4.70;99.90
14079;DHT22;7115;50.150;8.568;2022-12-07T04:08:12;4.70;99.90
14079;DHT22;7115;50.150;8.568;2022-12-07T04:10:39;4.70;99.90
14079;DHT22;7115;50.150;8.568;2022-12-07T04:13:06;4.70;99.90
14079;DHT22;7115;50.150;8.568;2022-12-07T04:15:33;4.70;99.90
14079;DHT22;7115;50.150;8.568;2022-12-07T04:18:01;4.70;99.90
14079;DHT22;7115;50.150;8.568;2022-12-07T04:20:28;4.60;99.90
14079;DHT22;7115;50.150;8.568;2022-12-07T04:22:55;4.60;99.90
14079;DHT22;7115;50.150;8.568;2022-12-07T04:25:22;4.70;99.90
14079;DHT22;7115;50.150;8.568;2022-12-07T04:27:48;4.70;99.90
14079;DHT22;7115;50.150;8.568;2022-12-07T04:30:15;4.70;99.90
14079;DHT22;7115;50.150;8.568;2022-12-07T04:32:43;4.70;99.90
14079;DHT22;7115;50.150;8.568;2022-12-07T04:35:11;4.70;99.90
14079;DHT22;7115;50.150;8.568;2022-12-07T04:37:38;4.70;99.90
14079;DHT22;7115;50.150;8.568;2022-12-07T04:40:07;4.70;99.90
14079;DHT22;7115;50.150;8.568;2022-12-07T04:42:34;4.70;99.90
14079;DHT22;7115;50.150;8.568;2022-12-07T04:45:01;4.70;99.90
14079;DHT22;7115;50.150;8.568;2022-12-07T04:47:28;4.70;99.90
14079;DHT22;7115;50.150;8.568;2022-12-07T04:49:55;4.70;99.90
14079;DHT22;7115;50.150;8.568;2022-12-07T04:52:23;4.70;99.90
14079;DHT22;7115;50.150;8.568;2022-12-07T04:54:50;4.80;99.90
14079;DHT22;7115;50.150;8.568;2022-12-07T04:57:17;4.80;99.90
14079;DHT22;7115;50.150;8.568;2022-12-07T04:59:44;4.80;99.90
14079;DHT22;7115;50.150;8.568;2022-12-07T05:02:12;4.80;99.90
14079;DHT22;7115;50.150;8.568;2022-12-07T05:04:39;4.80;99.90
14079;DHT22;7115;50.150;8.568;2022-12-07T05:07:05;4.80;99.90
14079;DHT22;7115;50.150;8.568;2022-12-07T05:09:34;4.80;99.90
14079;DHT22;7115;50.150;8.568;2022-12-07T05:12:01;4.90;99.90
14079;DHT22;7115;50.150;8.568;2022-12-07T05:14:28;4.90;99.90
14079;DHT22;7115;50.150;8.568;2022-12-07T05:16:55;4.90;99.90
14079;DHT22;7115;50.150;8.568;2022-12-07T05:19:21;5.00;99.90
14079;DHT22;7115;50.150;8.568;2022-12-07T05:21:48;5.00;99.90
14079;DHT22;7115;50.150;8.568;2022-12-07T05:24:16;5.00;99.90
14079;DHT22;7115;50.150;8.568;2022-12-07T05:26:45;5.00;99.90
14079;DHT22;7115;50.150;8.568;2022-12-07T05:29:14;5.10;99.90
14079;DHT22;7115;50.150;8.568;2022-12-07T05:31:42;5.10;99.90
14079;DHT22;7115;50.150;8.568;2022-12-07T05:34:09;5.10;99.90
14079;DHT22;7115;50.150;8.568;2022-12-07T05:36:36;5.10;99.90
14079;DHT22;7115;50.150;8.568;2022-12-07T05:39:03;5.10;99.90
14079;DHT22;7115;50.150;8.568;2022-12-07T05:41:30;5.10;99.90
14079;DHT22;7115;50.150;8.568;2022-12-07T05:44:21;5.10;99.90
14079;DHT22;7115;50.150;8.568;2022-12-07T05:46:48;5.10;99.90
14079;DHT22;7115;50.150;8.568;2022-12-07T05:49:15;5.20;99.90
14079;DHT22;7115;50.150;8.568;2022-12-07T05:51:42;5.20;99.90
14079;DHT22;7115;50.150;8.568;2022-12-07T05:54:09;5.30;99.90
14079;DHT22;7115;50.150;8.568;2022-12-07T05:56:36;5.30;99.90
14079;DHT22;7115;50.150;8.568;2022-12-07T05:59:03;5.40;99.90
14079;DHT22;7115;50.150;8.568;2022-12-07T06:01:51;5.40;99.90
14079;DHT22;7115;50.150;8.568;2022-12-07T06:04:18;5.50;99.90
14079;DHT22;7115;50.150;8.568;2022-12-07T06:06:46;5.60;99.90
14079;DHT22;7115;50.150;8.568;2022-12-07T06:09:13;5.70;99.90
14079;DHT22;7115;50.150;8.568;2022-12-07T06:11:40;5.80;99.90
14079;DHT22;7115;50.150;8.568;2022-12-07T06:14:26;5.80;99.90
14079;DHT22;7115;50.150;8.568;2022-12-07T06:16:54;5.90;99.90
14079;DHT22;7115;50.150;8.568;2022-12-07T06:19:21;6.00;99.90
14079;DHT22;7115;50.150;8.568;2022-12-07T06:21:48;6.00;99.90
14079;DHT22;7115;50.150;8.568;2022-12-07T06:24:16;6.00;99.90
14079;DHT22;7115;50.150;8.568;2022-12-07T06:26:43;6.10;99.90
14079;DHT22;7115;50.150;8.568;2022-12-07T06:29:11;6.10;99.90
14079;DHT22;7115;50.150;8.568;2022-12-07T06:31:38;6.10;99.90
14079;DHT22;7115;50.150;8.568;2022-12-07T06:34:10;6.10;99.90
14079;DHT22;7115;50.150;8.568;2022-12-07T06:36:37;6.10;99.90
14079;DHT22;7115;50.150;8.568;2022-12-07T06:39:05;6.10;99.90
14079;DHT22;7115;50.150;8.568;2022-12-07T06:41:32;6.10;99.90
14079;DHT22;7115;50.150;8.568;2022-12-07T06:43:58;6.00;99.90
14079;DHT22;7115;50.150;8.568;2022-12-07T06:46:25;5.80;99.90
14079;DHT22;7115;50.150;8.568;2022-12-07T06:48:52;5.70;99.90
14079;DHT22;7115;50.150;8.568;2022-12-07T06:51:20;5.70;99.90
14079;DHT22;7115;50.150;8.568;2022-12-07T06:53:47;5.60;99.90
14079;DHT22;7115;50.150;8.568;2022-12-07T06:56:15;5.50;99.90
14079;DHT22;7115;50.150;8.568;2022-12-07T06:58:42;5.50;99.90
14079;DHT22;7115;50.150;8.568;2022-12-07T07:01:10;5.50;99.90
14079;DHT22;7115;50.150;8.568;2022-12-07T07:03:37;5.50;99.90
14079;DHT22;7115;50.150;8.568;2022-12-07T07:06:04;5.50;99.90
14079;DHT22;7115;50.150;8.568;2022-12-07T07:08:33;5.50;99.90
14079;DHT22;7115;50.150;8.568;2022-12-07T07:11:00;5.60;99.90
14079;DHT22;7115;50.150;8.568;2022-12-07T07:13:27;5.70;99.90
14079;DHT22;7115;50.150;8.568;2022-12-07T07:15:54;5.70;99.90
14079;DHT22;7115;50.150;8.568;2022-12-07T07:18:21;5.80;99.90
14079;DHT22;7115;50.150;8.568;2022-12-07T07:20:49;5.80;99.90
14079;DHT22;7115;50.150;8.568;2022-12-07T07:23:16;5.80;99.90
14079;DHT22;7115;50.150;8.568;2022-12-07T07:25:45;5.80;99.90
14079;DHT22;7115;50.150;8.568;2022-12-07T07:28:12;5.80;99.90
14079;DHT22;7115;50.150;8.568;2022-12-07T07:30:40;5.80;99.90
14079;DHT22;7115;50.150;8.568;2022-12-07T07:33:07;5.80;99.90
14079;DHT22;7115;50.150;8.568;2022-12-07T07:35:34;5.80;99.90
14079;DHT22;7115;50.150;8.568;2022-12-07T07:38:02;5.80;99.90
14079;DHT22;7115;50.150;8.568;2022-12-07T07:40:29;5.70;99.90
14079;DHT22;7115;50.150;8.568;2022-12-07T07:42:58;5.70;99.90
14079;DHT22;7115;50.150;8.568;2022-12-07T07:45:26;5.60;99.90
14079;DHT22;7115;50.150;8.568;2022-12-07T07:47:53;5.50;99.90
14079;DHT22;7115;50.150;8.568;2022-12-07T07:50:21;5.50;99.90
14079;DHT22;7115;50.150;8.568;2022-12-07T07:52:48;5.50;99.90
14079;DHT22;7115;50.150;8.568;2022-12-07T07:55:15;5.40;99.90
14079;DHT22;7115;50.150;8.568;2022-12-07T07:57:42;5.40;99.90
14079;DHT22;7115;50.150;8.568;2022-12-07T08:00:16;5.50;99.90
14079;DHT22;7115;50.150;8.568;2022-12-07T08:02:43;5.50;99.90
14079;DHT22;7115;50.150;8.568;2022-12-07T08:05:11;5.60;99.90
14079;DHT22;7115;50.150;8.568;2022-12-07T08:07:39;5.50;99.90
14079;DHT22;7115;50.150;8.568;2022-12-07T08:10:08;5.50;99.90
14079;DHT22;7115;50.150;8.568;2022-12-07T08:12:36;5.50;99.90
14079;DHT22;7115;50.150;8.568;2022-12-07T08:15:04;5.60;99.90
14079;DHT22;7115;50.150;8.568;2022-12-07T08:17:33;5.60;99.90
14079;DHT22;7115;50.150;8.568;2022-12-07T08:20:00;5.70;99.90
14079;DHT22;7115;50.150;8.568;2022-12-07T08:22:27;5.80;99.90
14079;DHT22;7115;50.150;8.568;2022-12-07T08:24:54;5.90;99.90
14079;DHT22;7115;50.150;8.568;2022-12-07T08:27:21;6.10;99.90
14079;DHT22;7115;50.150;8.568;2022-12-07T08:29:53;6.40;99.90
14079;DHT22;7115;50.150;8.568;2022-12-07T08:32:20;6.80;99.90
14079;DHT22;7115;50.150;8.568;2022-12-07T08:34:48;7.10;99.90
14079;DHT22;7115;50.150;8.568;2022-12-07T08:37:16;7.10;99.90
14079;DHT22;7115;50.150;8.568;2022-12-07T08:39:43;6.90;99.90
14079;DHT22;7115;50.150;8.568;2022-12-07T08:42:10;6.80;99.90
14079;DHT22;7115;50.150;8.568;2022-12-07T08:44:37;6.60;99.90
14079;DHT22;7115;50.150;8.568;2022-12-07T08:47:05;6.50;99.90
14079;DHT22;7115;50.150;8.568;2022-12-07T08:49:37;6.50;99.90
14079;DHT22;7115;50.150;8.568;2022-12-07T08:52:06;6.60;99.90
14079;DHT22;7115;50.150;8.568;2022-12-07T08:54:34;6.90;99.90
14079;DHT22;7115;50.150;8.568;2022-12-07T08:57:03;7.10;99.90
14079;DHT22;7115;50.150;8.568;2022-12-07T08:59:31;7.20;99.90
14079;DHT22;7115;50.150;8.568;2022-12-07T09:01:59;7.30;99.90
14079;DHT22;7115;50.150;8.568;2022-12-07T09:04:26;7.50;99.90
14079;DHT22;7115;50.150;8.568;2022-12-07T09:06:53;7.90;99.90
14079;DHT22;7115;50.150;8.568;2022-12-07T09:09:22;8.40;99.90
14079;DHT22;7115;50.150;8.568;2022-12-07T09:11:49;8.80;99.90
14079;DHT22;7115;50.150;8.568;2022-12-07T09:14:16;9.00;99.90
14079;DHT22;7115;50.150;8.568;2022-12-07T09:16:43;9.10;99.90
14079;DHT22;7115;50.150;8.568;2022-12-07T09:19:10;9.00;99.90
14079;DHT22;7115;50.150;8.568;2022-12-07T09:21:37;8.90;99.90
14079;DHT22;7115;50.150;8.568;2022-12-07T09:24:05;9.00;99.90
14079;DHT22;7115;50.150;8.568;2022-12-07T09:26:35;9.00;99.90
14079;DHT22;7115;50.150;8.568;2022-12-07T09:29:03;8.60;99.90
14079;DHT22;7115;50.150;8.568;2022-12-07T09:31:29;8.40;99.90
14079;DHT22;7115;50.150;8.568;2022-12-07T09:33:58;8.20;99.90
14079;DHT22;7115;50.150;8.568;2022-12-07T09:36:26;8.10;99.90
14079;DHT22;7115;50.150;8.568;2022-12-07T09:38:53;7.90;99.90
14079;DHT22;7115;50.150;8.568;2022-12-07T09:41:21;7.80;99.90
14079;DHT22;7115;50.150;8.568;2022-12-07T09:43:50;7.70;99.90
14079;DHT22;7115;50.150;8.568;2022-12-07T09:46:19;7.60;99.90
14079;DHT22;7115;50.150;8.568;2022-12-07T09:48:48;7.60;99.90
14079;DHT22;7115;50.150;8.568;2022-12-07T09:51:18;7.70;99.90
14079;DHT22;7115;50.150;8.568;2022-12-07T09:53:50;7.80;99.90
14079;DHT22;7115;50.150;8.568;2022-12-07T09:56:19;8.10;99.90
14079;DHT22;7115;50.150;8.568;2022-12-07T09:58:46;8.70;99.90
14079;DHT22;7115;50.150;8.568;2022-12-07T10:01:17;9.30;99.90
14079;DHT22;7115;50.150;8.568;2022-12-07T10:03:50;10.00;99.90
14079;DHT22;7115;50.150;8.568;2022-12-07T10:06:18;10.80;99.90
14079;DHT22;7115;50.150;8.568;2022-12-07T10:08:45;11.60;99.90
14079;DHT22;7115;50.150;8.568;2022-12-07T10:11:13;12.20;99.90
14079;DHT22;7115;50.150;8.568;2022-12-07T10:13:42;12.50;99.90
14079;DHT22;7115;50.150;8.568;2022-12-07T10:16:32;12.30;99.90
14079;DHT22;7115;50.150;8.568;2022-12-07T10:19:19;11.90;99.90
14079;DHT22;7115;50.150;8.568;2022-12-07T10:22:11;11.40;99.90
14079;DHT22;7115;50.150;8.568;2022-12-07T10:24:40;11.00;99.90
14079;DHT22;7115;50.150;8.568;2022-12-07T10:27:19;10.50;99.90
14079;DHT22;7115;50.150;8.568;2022-12-07T10:29:49;10.30;99.90
14079;DHT22;7115;50.150;8.568;2022-12-07T10:32:33;10.10;99.90
14079;DHT22;7115;50.150;8.568;2022-12-07T10:35:23;10.00;99.90
14079;DHT22;7115;50.150;8.568;2022-12-07T10:37:51;10.20;99.90
14079;DHT22;7115;50.150;8.568;2022-12-07T10:40:31;10.70;99.90
14079;DHT22;7115;50.150;8.568;2022-12-07T10:43:17;11.50;99.90
14079;DHT22;7115;50.150;8.568;2022-12-07T10:48:55;12.90;99.90
14079;DHT22;7115;50.150;8.568;2022-12-07T10:51:29;13.30;99.90
14079;DHT22;7115;50.150;8.568;2022-12-07T10:54:11;13.50;99.90
14079;DHT22;7115;50.150;8.568;2022-12-07T10:56:51;13.40;99.90
14079;DHT22;7115;50.150;8.568;2022-12-07T10:59:39;13.30;99.90
14079;DHT22;7115;50.150;8.568;2022-12-07T11:02:19;13.30;99.90
14079;DHT22;7115;50.150;8.568;2022-12-07T11:04:59;13.10;99.90
14079;DHT22;7115;50.150;8.568;2022-12-07T11:07:38;13.00;99.90
14079;DHT22;7115;50.150;8.568;2022-12-07T11:10:13;12.80;99.90
14079;DHT22;7115;50.150;8.568;2022-12-07T11:13:13;12.60;99.90
14079;DHT22;7115;50.150;8.568;2022-12-07T11:15:55;12.30;99.90
14079;DHT22;7115;50.150;8.568;2022-12-07T11:18:27;11.90;99.90
14079;DHT22;7115;50.150;8.568;2022-12-07T11:21:06;11.60;99.90
14079;DHT22;7115;50.150;8.568;2022-12-07T11:23:44;11.30;99.90
14079;DHT22;7115;50.150;8.568;2022-12-07T11:26:18;11.00;99.90
14079;DHT22;7115;50.150;8.568;2022-12-07T11:29:05;10.80;99.90
14079;DHT22;7115;50.150;8.568;2022-12-07T11:31:51;10.60;99.90
14079;DHT22;7115;50.150;8.568;2022-12-07T11:34:26;10.40;99.90
14079;DHT22;7115;50.150;8.568;2022-12-07T11:36:57;10.40;99.90
14079;DHT22;7115;50.150;8.568;2022-12-07T11:39:28;10.30;99.90
14079;DHT22;7115;50.150;8.568;2022-12-07T11:42:00;10.20;99.90
14079;DHT22;7115;50.150;8.568;2022-12-07T11:44:33;10.20;99.90
14079;DHT22;7115;50.150;8.568;2022-12-07T11:47:08;10.20;99.90
14079;DHT22;7115;50.150;8.568;2022-12-07T11:49:42;10.20;99.90
14079;DHT22;7115;50.150;8.568;2022-12-07T11:52:17;10.10;99.90
14079;DHT22;7115;50.150;8.568;2022-12-07T11:54:45;10.10;99.90
14079;DHT22;7115;50.150;8.568;2022-12-07T11:57:19;10.00;99.90
14079;DHT22;7115;50.150;8.568;2022-12-07T11:59:50;9.90;99.90
14079;DHT22;7115;50.150;8.568;2022-12-07T12:02:21;9.80;99.90
14079;DHT22;7115;50.150;8.568;2022-12-07T12:04:54;9.80;99.90
14079;DHT22;7115;50.150;8.568;2022-12-07T12:07:26;9.80;99.90
14079;DHT22;7115;50.150;8.568;2022-12-07T12:10:19;9.70;99.90
14079;DHT22;7115;50.150;8.568;2022-12-07T12:13:11;9.70;99.90
14079;DHT22;7115;50.150;8.568;2022-12-07T12:16:11;9.60;99.90
14079;DHT22;7115;50.150;8.568;2022-12-07T12:18:53;9.50;99.90
14079;DHT22;7115;50.150;8.568;2022-12-07T12:21:27;9.40;99.90
14079;DHT22;7115;50.150;8.568;2022-12-07T12:23:59;9.60;99.90
14079;DHT22;7115;50.150;8.568;2022-12-07T12:26:31;9.60;99.90
14079;DHT22;7115;50.150;8.568;2022-12-07T12:29:00;9.60;99.90
14079;DHT22;7115;50.150;8.568;2022-12-07T12:31:34;9.50;99.90
14079;DHT22;7115;50.150;8.568;2022-12-07T12:34:28;9.40;99.90
14079;DHT22;7115;50.150;8.568;2022-12-07T12:36:53;9.30;99.90
14079;DHT22;7115;50.150;8.568;2022-12-07T12:39:21;9.20;99.90
14079;DHT22;7115;50.150;8.568;2022-12-07T12:41:59;9.10;99.90
14079;DHT22;7115;50.150;8.568;2022-12-07T12:47:53;9.10;99.90
14079;DHT22;7115;50.150;8.568;2022-12-07T12:50:22;9.00;99.90
14079;DHT22;7115;50.150;8.568;2022-12-07T12:56:21;9.00;99.90
14079;DHT22;7115;50.150;8.568;2022-12-07T12:59:22;8.90;99.90
14079;DHT22;7115;50.150;8.568;2022-12-07T13:01:50;9.00;99.90
14079;DHT22;7115;50.150;8.568;2022-12-07T13:04:39;9.00;99.90
14079;DHT22;7115;50.150;8.568;2022-12-07T13:07:51;9.00;99.90
14079;DHT22;7115;50.150;8.568;2022-12-07T13:10:35;9.00;99.90
14079;DHT22;7115;50.150;8.568;2022-12-07T13:13:08;9.00;99.90
14079;DHT22;7115;50.150;8.568;2022-12-07T13:15:53;8.90;99.90
14079;DHT22;7115;50.150;8.568;2022-12-07T13:18:34;9.00;99.90
14079;DHT22;7115;50.150;8.568;2022-12-07T13:21:39;8.90;99.90
14079;DHT22;7115;50.150;8.568;2022-12-07T13:23:55;8.80;99.90
14079;DHT22;7115;50.150;8.568;2022-12-07T13:26:27;8.70;99.90
14079;DHT22;7115;50.150;8.568;2022-12-07T13:29:09;8.60;99.90
14079;DHT22;7115;50.150;8.568;2022-12-07T13:31:38;8.60;99.90
14079;DHT22;7115;50.150;8.568;2022-12-07T13:34:30;8.60;99.90
14079;DHT22;7115;50.150;8.568;2022-12-07T13:36:58;8.60;99.90
14079;DHT22;7115;50.150;8.568;2022-12-07T13:39:27;8.70;99.90
14079;DHT22;7115;50.150;8.568;2022-12-07T13:41:57;8.80;99.90
14079;DHT22;7115;50.150;8.568;2022-12-07T13:44:26;8.90;99.90
14079;DHT22;7115;50.150;8.568;2022-12-07T13:46:59;8.90;99.90
14079;DHT22;7115;50.150;8.568;2022-12-07T13:49:29;8.90;99.90
14079;DHT22;7115;50.150;8.568;2022-12-07T13:52:13;8.90;99.90
14079;DHT22;7115;50.150;8.568;2022-12-07T13:54:44;8.90;99.90
14079;DHT22;7115;50.150;8.568;2022-12-07T13:57:13;9.00;99.90
14079;DHT22;7115;50.150;8.568;2022-12-07T13:59:40;8.90;99.90
14079;DHT22;7115;50.150;8.568;2022-12-07T14:02:18;8.90;99.90
14079;DHT22;7115;50.150;8.568;2022-12-07T14:04:49;8.90;99.90
14079;DHT22;7115;50.150;8.568;2022-12-07T14:07:24;8.80;99.90
14079;DHT22;7115;50.150;8.568;2022-12-07T14:09:55;8.70;99.90
14079;DHT22;7115;50.150;8.568;2022-12-07T14:12:26;8.70;99.90
14079;DHT22;7115;50.150;8.568;2022-12-07T14:14:54;8.60;99.90
14079;DHT22;7115;50.150;8.568;2022-12-07T14:17:22;8.60;99.90
14079;DHT22;7115;50.150;8.568;2022-12-07T14:19:51;8.60;99.90
14079;DHT22;7115;50.150;8.568;2022-12-07T14:22:25;8.50;99.90
14079;DHT22;7115;50.150;8.568;2022-12-07T14:25:21;8.50;99.90
14079;DHT22;7115;50.150;8.568;2022-12-07T14:27:52;8.50;99.90
14079;DHT22;7115;50.150;8.568;2022-12-07T14:30:23;8.40;99.90
14079;DHT22;7115;50.150;8.568;2022-12-07T14:32:53;8.30;99.90
14079;DHT22;7115;50.150;8.568;2022-12-07T14:35:21;8.10;99.90
14079;DHT22;7115;50.150;8.568;2022-12-07T14:37:49;8.00;99.90
14079;DHT22;7115;50.150;8.568;2022-12-07T14:40:18;7.90;99.90
14079;DHT22;7115;50.150;8.568;2022-12-07T14:42:47;7.90;99.90
14079;DHT22;7115;50.150;8.568;2022-12-07T14:45:19;7.80;99.90
14079;DHT22;7115;50.150;8.568;2022-12-07T14:47:46;7.60;99.90
14079;DHT22;7115;50.150;8.568;2022-12-07T14:50:36;7.40;99.90
14079;DHT22;7115;50.150;8.568;2022-12-07T14:53:09;7.20;99.90
14079;DHT22;7115;50.150;8.568;2022-12-07T14:55:53;7.20;99.90
14079;DHT22;7115;50.150;8.568;2022-12-07T14:58:20;7.10;99.90
14079;DHT22;7115;50.150;8.568;2022-12-07T15:00:48;7.10;99.90
14079;DHT22;7115;50.150;8.568;2022-12-07T15:03:15;7.10;99.90
14079;DHT22;7115;50.150;8.568;2022-12-07T15:05:42;7.10;99.90
14079;DHT22;7115;50.150;8.568;2022-12-07T15:08:10;7.10;99.90
14079;DHT22;7115;50.150;8.568;2022-12-07T15:10:38;7.10;99.90
14079;DHT22;7115;50.150;8.568;2022-12-07T15:13:07;7.10;99.90
14079;DHT22;7115;50.150;8.568;2022-12-07T15:15:54;7.10;99.90
14079;DHT22;7115;50.150;8.568;2022-12-07T15:18:23;7.00;99.90
14079;DHT22;7115;50.150;8.568;2022-12-07T15:20:50;6.90;99.90
14079;DHT22;7115;50.150;8.568;2022-12-07T15:23:18;6.90;99.90
14079;DHT22;7115;50.150;8.568;2022-12-07T15:25:47;6.80;99.90
14079;DHT22;7115;50.150;8.568;2022-12-07T15:28:14;6.80;99.90
14079;DHT22;7115;50.150;8.568;2022-12-07T15:30:42;6.80;99.90
14079;DHT22;7115;50.150;8.568;2022-12-07T15:33:12;6.70;99.90
14079;DHT22;7115;50.150;8.568;2022-12-07T15:35:39;6.70;99.90
14079;DHT22;7115;50.150;8.568;2022-12-07T15:38:06;6.60;99.90
14079;DHT22;7115;50.150;8.568;2022-12-07T15:40:33;6.60;99.90
14079;DHT22;7115;50.150;8.568;2022-12-07T15:43:00;6.60;99.90
14079;DHT22;7115;50.150;8.568;2022-12-07T15:45:27;6.50;99.90
14079;DHT22;7115;50.150;8.568;2022-12-07T15:47:54;6.20;99.90
14079;DHT22;7115;50.150;8.568;2022-12-07T15:50:43;6.30;99.90
14079;DHT22;7115;50.150;8.568;2022-12-07T15:53:10;6.30;99.90
14079;DHT22;7115;50.150;8.568;2022-12-07T15:55:38;6.20;99.90
14079;DHT22;7115;50.150;8.568;2022-12-07T15:58:05;6.20;99.90
14079;DHT22;7115;50.150;8.568;2022-12-07T16:00:33;6.20;99.90
14079;DHT22;7115;50.150;8.568;2022-12-07T16:03:00;6.30;99.90
14079;DHT22;7115;50.150;8.568;2022-12-07T16:05:27;6.30;99.90
14079;DHT22;7115;50.150;8.568;2022-12-07T16:07:55;6.40;99.90
14079;DHT22;7115;50.150;8.568;2022-12-07T16:10:22;6.50;99.90
14079;DHT22;7115;50.150;8.568;2022-12-07T16:12:49;6.50;99.90
14079;DHT22;7115;50.150;8.568;2022-12-07T16:15:16;6.50;99.90
14079;DHT22;7115;50.150;8.568;2022-12-07T16:17:50;6.60;99.90
14079;DHT22;7115;50.150;8.568;2022-12-07T16:20:18;6.60;99.90
14079;DHT22;7115;50.150;8.568;2022-12-07T16:22:45;6.60;99.90
14079;DHT22;7115;50.150;8.568;2022-12-07T16:25:13;6.60;99.90
14079;DHT22;7115;50.150;8.568;2022-12-07T16:27:40;6.60;99.90
14079;DHT22;7115;50.150;8.568;2022-12-07T16:30:08;6.60;99.90
14079;DHT22;7115;50.150;8.568;2022-12-07T16:32:35;6.70;99.90
14079;DHT22;7115;50.150;8.568;2022-12-07T16:35:02;6.80;99.90
14079;DHT22;7115;50.150;8.568;2022-12-07T16:37:30;6.80;99.90